Terminal Aerodrome Forecast
Issued by NWS Nashville, TN

Current Version | Previous Version | Text Only | Print | Product List | Glossary Off
Versions: 1 2 3 4 5 6 7 8 9 10 11 12 13 14 15 16 17 18 19 20

358
FTUS44 KOHX 012330
TAFBNA
TAF
KBNA 012330Z 0200/0224 22008KT P6SM VCSH SCT040 BKN100
     FM020800 VRB03KT 5SM BR BKN015 OVC025
     FM021400 01005KT 6SM -SHRA BR SCT025 BKN040 PROB30 0218/0222
      2SM TSRA BKN025CB
     FM022200 27007KT P6SM SCT035 BKN100=

USA.gov is the U.S. government's official web portal to all federal, state and local government web resources and services.